IPN weather

Usiminas Airport
Ipatinga, Minas Gerais, Brazil

Public forecast

Using degrees Celsius for public forecast. Weather courtesy of forecast.io.

Current aviation weather report (METAR) for Usiminas Airport

Retrieved 2019/12/08 20:00 UTC (43 minutes ago):

SBIP 082000Z 03005KT 8000 SCT015 OVC040 22/20 Q1015

Closest aviation forecast (TAF) to Usiminas Airport

Forecast is more than 12 hours old.

Closest forecast is Serro Airport, 74.2 nm (137.4 km) NW. Retrieved 2009/11/03 09:30 UTC (10 years ago):

TAF SNSO 030930Z 0312/0418 06010G20KT CAVOK TEMPO 0315/0319 5000 HZ